Time;durP1;ratioP1;P1;durP2;ratioP2;P2;SDS_P1;SDS_P2;PMS_P1;PMS_P2;Temp;Humidity;BMP_temperature;BMP_pressure;BME280_temperature;BME280_humidity;BME280_pressure;Samples;Min_cycle;Max_cycle;Signal;HPM_P1;HPM_P2
2022/09/06 00:00:10;;;;;;;20.20;5.32;;;;;;;17.74;97.02;101378.19;5030384;28;20653;-76
2022/09/06 00:02:36;;;;;;;19.85;6.50;;;;;;;17.79;97.86;101441.16;5031886;28;20029;-76
2022/09/06 00:05:03;;;;;;;16.35;5.88;;;;;;;17.78;95.92;101472.06;5030175;28;20080;-76
2022/09/06 00:07:29;;;;;;;16.98;6.07;;;;;;;17.76;95.29;101463.22;5029529;28;20050;-77
2022/09/06 00:09:55;;;;;;;15.23;6.13;;;;;;;17.75;95.38;101464.19;5033081;28;20121;-76
2022/09/06 00:12:20;;;;;;;18.77;6.53;;;;;;;17.74;94.36;101491.53;5031724;28;20060;-76
2022/09/06 00:14:46;;;;;;;14.38;5.53;;;;;;;17.75;93.96;101504.13;5033141;28;20108;-76
2022/09/06 00:17:11;;;;;;;15.52;5.82;;;;;;;17.76;95.47;101514.88;5033209;28;20041;-76
2022/09/06 00:19:36;;;;;;;18.05;6.30;;;;;;;17.75;93.83;101521.28;5031142;28;20087;-76
2022/09/06 00:22:02;;;;;;;15.80;6.50;;;;;;;17.75;94.55;101532.16;5032026;28;20104;-76
2022/09/06 00:24:27;;;;;;;17.35;6.18;;;;;;;17.74;93.97;101535.88;5030446;28;20454;-76
2022/09/06 00:26:53;;;;;;;18.88;6.75;;;;;;;17.74;94.37;101525.00;5030237;28;20345;-76
2022/09/06 00:29:18;;;;;;;16.92;6.55;;;;;;;17.74;95.50;101529.59;5045121;28;20138;-76
2022/09/06 00:31:43;;;;;;;16.75;6.70;;;;;;;17.73;94.27;101542.34;5031926;28;20030;-76
2022/09/06 00:34:09;;;;;;;19.45;7.03;;;;;;;17.69;94.26;101534.59;5030701;28;20040;-76
2022/09/06 00:36:34;;;;;;;16.92;6.70;;;;;;;17.65;94.86;101521.28;5030980;28;20029;-76
2022/09/06 00:38:59;;;;;;;18.52;6.95;;;;;;;17.66;96.37;101516.72;5030036;28;20135;-76
2022/09/06 00:41:25;;;;;;;19.83;7.47;;;;;;;17.67;97.20;101518.41;5032418;28;20442;-76
2022/09/06 00:43:50;;;;;;;17.80;6.60;;;;;;;17.66;96.53;101511.28;5030237;28;20070;-76
2022/09/06 00:46:24;;;;;;;15.68;6.22;;;;;;;17.63;96.40;101500.72;5030045;28;20111;-76
2022/09/06 00:48:54;;;;;;;18.73;7.00;;;;;;;17.60;97.30;101498.25;5028328;28;20025;-76
2022/09/06 00:51:23;;;;;;;17.90;7.30;;;;;;;17.57;97.46;101498.53;5029961;28;20424;-76
2022/09/06 00:53:49;;;;;;;19.30;7.07;;;;;;;17.55;97.62;101492.41;5031150;28;20027;-76
2022/09/06 00:56:15;;;;;;;19.10;7.53;;;;;;;17.53;98.50;101489.81;5031623;28;20033;-76
2022/09/06 00:58:40;;;;;;;17.77;7.68;;;;;;;17.51;98.69;101486.41;5027852;28;20037;-76
2022/09/06 01:01:06;;;;;;;17.25;6.75;;;;;;;17.49;98.68;101476.66;5029026;28;21561;-77
2022/09/06 01:03:33;;;;;;;17.75;6.78;;;;;;;17.46;99.32;101466.94;5023748;28;20029;-78
2022/09/06 01:06:16;;;;;;;16.25;7.00;;;;;;;17.44;99.37;101463.50;5026906;28;20032;-77
2022/09/06 01:09:12;;;;;;;16.13;6.70;;;;;;;17.46;99.25;101465.06;5031180;28;20112;-77
2022/09/06 01:11:47;;;;;;;18.25;7.80;;;;;;;17.44;99.60;101458.06;5032022;28;20017;-77
2022/09/06 01:14:36;;;;;;;17.85;7.07;;;;;;;17.46;99.33;101456.91;5032709;28;20029;-79
2022/09/06 01:17:20;;;;;;;17.63;7.03;;;;;;;17.44;100.00;101447.22;5028248;28;20055;-78
2022/09/06 01:20:22;;;;;;;17.80;7.15;;;;;;;17.45;99.99;101432.59;5031879;28;20037;-78
2022/09/06 01:22:50;;;;;;;20.25;8.02;;;;;;;17.44;100.00;101414.59;5027167;28;20033;-78
2022/09/06 01:25:34;;;;;;;19.73;7.50;;;;;;;17.46;100.00;101380.81;5031738;28;20061;-78
2022/09/06 01:28:11;;;;;;;19.50;7.97;;;;;;;17.49;100.00;101357.09;5029568;28;20485;-78
2022/09/06 01:30:44;;;;;;;17.40;7.18;;;;;;;17.49;100.00;101344.34;5030807;28;20068;-78
2022/09/06 01:33:21;;;;;;;18.15;7.78;;;;;;;17.54;100.00;101343.91;5031070;28;20025;-79
2022/09/06 01:36:06;;;;;;;16.23;6.45;;;;;;;17.57;100.00;101328.19;5031079;28;20029;-80
2022/09/06 01:38:32;;;;;;;16.38;7.13;;;;;;;17.55;100.00;101318.47;5021989;28;20036;-80
2022/09/06 01:40:57;;;;;;;19.48;7.28;;;;;;;17.56;99.90;101301.16;5039254;28;20417;-80
2022/09/06 01:43:39;;;;;;;19.23;7.57;;;;;;;17.60;99.83;101297.09;5029635;28;20042;-80
2022/09/06 01:46:19;;;;;;;19.65;8.07;;;;;;;17.60;100.00;101289.84;5025290;28;20030;-80
2022/09/06 01:49:10;;;;;;;17.63;7.93;;;;;;;17.61;98.45;101268.94;5029680;28;20037;-80
2022/09/06 01:51:51;;;;;;;17.45;7.40;;;;;;;17.57;99.08;101262.94;5028266;28;20102;-80
2022/09/06 01:54:50;;;;;;;17.58;7.03;;;;;;;17.56;98.50;101263.94;5028826;28;20064;-80
2022/09/06 01:57:35;;;;;;;20.92;7.57;;;;;;;17.52;99.37;101267.97;5023019;28;20427;-80
2022/09/06 02:00:06;;;;;;;17.58;6.40;;;;;;;17.53;99.89;101279.72;5028233;28;20100;-80
2022/09/06 02:02:38;;;;;;;18.30;7.30;;;;;;;17.54;99.61;101305.84;5029069;28;20116;-80
2022/09/06 02:05:16;;;;;;;17.55;7.10;;;;;;;17.57;100.00;101344.50;5030599;28;20021;-80
2022/09/06 02:07:44;;;;;;;18.77;7.20;;;;;;;17.58;99.85;101335.31;5029010;28;20042;-80
2022/09/06 02:10:25;;;;;;;16.70;6.97;;;;;;;17.59;100.00;101319.88;5029661;28;20612;-80
2022/09/06 02:12:54;;;;;;;17.63;7.22;;;;;;;17.60;99.83;101322.44;5031526;28;20032;-80
2022/09/06 02:15:28;;;;;;;17.58;7.20;;;;;;;17.59;98.88;101311.72;5028771;28;20037;-80
2022/09/06 02:18:00;;;;;;;17.90;7.40;;;;;;;17.57;99.59;101300.13;5030071;28;20025;-80
2022/09/06 02:20:30;;;;;;;18.73;7.45;;;;;;;17.54;99.70;101311.28;5029182;28;20131;-80
2022/09/06 02:23:00;;;;;;;16.92;7.28;;;;;;;17.47;99.32;101311.88;5029364;28;20029;-80
2022/09/06 02:25:32;;;;;;;18.42;8.32;;;;;;;17.42;99.70;101307.91;5025362;28;20041;-80
2022/09/06 02:27:58;;;;;;;18.48;7.20;;;;;;;17.36;99.34;101303.91;5028485;28;20110;-80
2022/09/06 02:30:23;;;;;;;17.60;7.28;;;;;;;17.32;99.34;101318.78;5026062;28;20485;-80
2022/09/06 02:32:57;;;;;;;17.77;7.20;;;;;;;17.25;99.52;101306.78;5028937;28;20025;-80
2022/09/06 02:35:23;;;;;;;18.67;7.10;;;;;;;17.20;99.76;101300.94;5028940;28;20025;-80
2022/09/06 02:37:49;;;;;;;18.15;7.35;;;;;;;17.14;99.69;101294.22;5028052;28;20350;-80
2022/09/06 02:40:14;;;;;;;17.48;7.45;;;;;;;17.08;99.59;101300.22;5028248;28;20037;-80
2022/09/06 02:42:40;;;;;;;17.52;6.95;;;;;;;17.01;99.04;101299.09;5025463;28;20026;-80
2022/09/06 02:45:06;;;;;;;20.55;7.47;;;;;;;16.94;99.34;101299.66;5022707;28;20022;-80
2022/09/06 02:47:31;;;;;;;16.10;7.18;;;;;;;16.87;99.21;101301.22;5026919;28;20121;-80
2022/09/06 02:49:57;;;;;;;18.08;7.80;;;;;;;16.83;99.86;101301.63;5029637;28;20025;-80
2022/09/06 02:52:22;;;;;;;18.60;7.28;;;;;;;16.77;100.00;101309.34;5029537;28;20037;-80
2022/09/06 02:54:47;;;;;;;16.75;6.95;;;;;;;16.75;100.00;101316.78;5029792;28;20021;-80
2022/09/06 02:57:13;;;;;;;17.15;7.72;;;;;;;16.74;100.00;101311.47;5028550;28;20068;-80
2022/09/06 02:59:38;;;;;;;18.27;7.70;;;;;;;16.71;100.00;101318.03;5025899;28;20025;-80
2022/09/06 03:02:03;;;;;;;19.38;7.82;;;;;;;16.73;100.00;101309.75;5022766;28;20064;-80
2022/09/06 03:04:29;;;;;;;19.83;8.88;;;;;;;16.74;100.00;101320.47;5039571;28;20026;-80
2022/09/06 03:06:55;;;;;;;18.70;8.52;;;;;;;16.75;100.00;101311.34;5028247;28;20076;-79
2022/09/06 03:09:20;;;;;;;18.85;8.65;;;;;;;16.76;100.00;101315.78;5029980;28;20384;-79
2022/09/06 03:11:45;;;;;;;18.33;8.02;;;;;;;16.81;100.00;101311.75;5029227;28;20029;-80
2022/09/06 03:14:11;;;;;;;18.83;8.50;;;;;;;16.83;100.00;101310.63;5028926;28;20022;-80
2022/09/06 03:16:37;;;;;;;19.92;8.70;;;;;;;16.86;100.00;101309.50;5027989;28;20141;-80
2022/09/06 03:19:02;;;;;;;22.55;9.13;;;;;;;16.89;100.00;101311.94;5021329;28;20034;-80
2022/09/06 03:21:28;;;;;;;17.83;7.68;;;;;;;16.93;100.00;101316.09;5026192;28;20045;-80
2022/09/06 03:23:53;;;;;;;18.42;8.30;;;;;;;16.92;100.00;101309.78;5029488;28;20021;-80
2022/09/06 03:26:19;;;;;;;19.30;7.75;;;;;;;16.93;100.00;101324.25;5027966;28;20034;-80
2022/09/06 03:28:44;;;;;;;19.08;8.38;;;;;;;16.92;100.00;101319.81;5029835;28;20079;-80
2022/09/06 03:31:09;;;;;;;22.23;8.15;;;;;;;16.93;100.00;101318.81;5029747;28;20029;-79
2022/09/06 03:33:35;;;;;;;18.38;7.63;;;;;;;16.91;100.00;101316.25;5025035;28;20018;-79
2022/09/06 03:36:01;;;;;;;16.95;7.47;;;;;;;16.90;100.00;101317.22;5022427;28;20026;-79
2022/09/06 03:38:28;;;;;;;19.60;7.47;;;;;;;16.87;100.00;101313.94;5026813;28;20135;-79
2022/09/06 03:40:54;;;;;;;17.52;7.70;;;;;;;16.84;100.00;101314.19;5028070;28;20484;-79
2022/09/06 03:43:21;;;;;;;22.77;8.05;;;;;;;16.82;100.00;101305.34;5027577;28;20040;-79
2022/09/06 03:45:49;;;;;;;17.30;7.55;;;;;;;16.80;100.00;101307.34;5028797;28;20128;-79
2022/09/06 03:48:16;;;;;;;17.08;7.43;;;;;;;16.76;100.00;101318.50;5028316;28;20037;-79
2022/09/06 03:50:46;;;;;;;17.88;8.07;;;;;;;16.74;100.00;101315.03;5027677;28;20033;-79
2022/09/06 03:53:12;;;;;;;18.27;8.38;;;;;;;16.73;100.00;101310.59;5023625;28;20030;-79
2022/09/06 03:55:37;;;;;;;20.90;8.70;;;;;;;16.73;100.00;101313.31;5027562;28;20029;-79
2022/09/06 03:58:03;;;;;;;20.40;7.53;;;;;;;16.74;100.00;101315.03;5027941;28;20453;-80
2022/09/06 04:00:28;;;;;;;18.15;7.82;;;;;;;16.72;100.00;101316.19;5024826;28;20060;-80
2022/09/06 04:02:53;;;;;;;17.52;7.60;;;;;;;16.70;100.00;101320.91;5025075;28;20048;-80
2022/09/06 04:05:19;;;;;;;18.83;8.40;;;;;;;16.66;100.00;101323.06;5028294;28;20029;-79
2022/09/06 04:07:44;;;;;;;17.15;8.30;;;;;;;16.65;100.00;101326.75;5028367;28;20477;-79
2022/09/06 04:10:10;;;;;;;19.95;9.13;;;;;;;16.62;100.00;101324.31;5045354;28;20037;-80
2022/09/06 04:12:35;;;;;;;18.98;7.75;;;;;;;16.62;100.00;101337.03;5029481;28;20029;-81
2022/09/06 04:15:00;;;;;;;18.45;8.02;;;;;;;16.56;100.00;101333.00;5028058;28;20421;-80
2022/09/06 04:17:26;;;;;;;19.83;8.32;;;;;;;16.52;100.00;101342.44;5029776;28;20087;-80
2022/09/06 04:19:51;;;;;;;19.02;8.48;;;;;;;16.50;100.00;101339.00;5029096;28;20033;-80
2022/09/06 04:22:16;;;;;;;18.63;8.40;;;;;;;16.46;100.00;101342.97;5029293;28;20052;-80
2022/09/06 04:24:42;;;;;;;19.92;9.10;;;;;;;16.41;100.00;101341.56;5028867;28;20033;-80
2022/09/06 04:27:07;;;;;;;21.00;9.80;;;;;;;16.37;100.00;101340.13;5045214;28;20421;-79
2022/09/06 04:29:32;;;;;;;20.70;9.25;;;;;;;16.35;100.00;101343.97;5033282;28;20025;-79
2022/09/06 04:31:57;;;;;;;19.77;9.07;;;;;;;16.31;100.00;101346.09;5031075;28;20032;-79
2022/09/06 04:34:23;;;;;;;20.20;8.48;;;;;;;16.25;100.00;101336.66;5033224;28;20108;-79
2022/09/06 04:36:48;;;;;;;19.15;8.05;;;;;;;16.23;100.00;101340.50;5031261;28;20060;-79
2022/09/06 04:39:14;;;;;;;21.08;9.20;;;;;;;16.21;100.00;101342.50;5033306;28;20025;-79
2022/09/06 04:41:39;;;;;;;19.40;9.15;;;;;;;16.16;100.00;101342.03;5028045;28;20608;-80
2022/09/06 04:44:04;;;;;;;20.35;9.27;;;;;;;16.08;100.00;101343.59;5032251;28;20405;-80
2022/09/06 04:46:30;;;;;;;18.13;8.32;;;;;;;16.03;100.00;101353.13;5030696;28;20108;-80
2022/09/06 04:48:56;;;;;;;18.25;8.68;;;;;;;15.95;100.00;101348.38;5024560;28;20386;-80
2022/09/06 04:51:23;;;;;;;19.70;8.75;;;;;;;15.91;100.00;101344.22;5029672;28;20029;-80
2022/09/06 04:53:49;;;;;;;19.05;8.48;;;;;;;15.86;100.00;101344.63;5045484;28;20025;-80
2022/09/06 04:56:18;;;;;;;19.95;9.52;;;;;;;15.84;100.00;101340.31;5029826;28;20029;-80
2022/09/06 04:58:45;;;;;;;19.27;8.30;;;;;;;15.81;100.00;101343.31;5030509;28;20034;-80
2022/09/06 05:01:11;;;;;;;20.73;10.23;;;;;;;15.76;100.00;101340.97;5024503;28;20044;-80
2022/09/06 05:03:37;;;;;;;19.17;9.02;;;;;;;15.72;100.00;101343.13;5030041;28;20030;-80
2022/09/06 05:06:04;;;;;;;23.80;8.52;;;;;;;15.72;100.00;101334.09;5029869;28;20029;-79
2022/09/06 05:08:29;;;;;;;19.05;9.10;;;;;;;15.71;100.00;101327.84;5031236;28;20037;-79
2022/09/06 05:10:54;;;;;;;19.55;10.23;;;;;;;15.70;100.00;101331.53;5031539;28;20492;-79
2022/09/06 05:13:20;;;;;;;24.00;9.45;;;;;;;15.71;100.00;101325.13;5031381;28;20123;-79
2022/09/06 05:15:45;;;;;;;20.20;9.88;;;;;;;15.72;100.00;101331.41;5029801;28;20071;-79
2022/09/06 05:18:10;;;;;;;20.17;9.77;;;;;;;15.70;100.00;101326.09;5031000;28;20468;-79
2022/09/06 05:20:36;;;;;;;20.95;9.68;;;;;;;15.72;100.00;101326.84;5030280;28;20113;-79
2022/09/06 05:23:01;;;;;;;21.00;10.23;;;;;;;15.74;100.00;101326.72;5030461;28;20037;-79
2022/09/06 05:25:26;;;;;;;23.25;10.95;;;;;;;15.73;100.00;101333.97;5029868;28;20055;-79
2022/09/06 05:27:51;;;;;;;19.55;9.75;;;;;;;15.75;100.00;101336.53;5032433;28;20091;-81
2022/09/06 05:30:17;;;;;;;20.55;10.75;;;;;;;15.75;100.00;101332.97;5025184;28;20024;-81
2022/09/06 05:32:42;;;;;;;19.75;9.45;;;;;;;15.75;100.00;101333.81;5030264;28;20056;-81
2022/09/06 05:35:08;;;;;;;20.33;8.57;;;;;;;15.74;100.00;101332.13;5031157;28;20022;-80
2022/09/06 05:37:33;;;;;;;22.13;8.43;;;;;;;15.74;100.00;101342.97;5029306;28;20032;-80
2022/09/06 05:40:00;;;;;;;18.10;8.02;;;;;;;15.75;100.00;101344.66;5030233;28;20109;-80
2022/09/06 05:42:25;;;;;;;20.23;9.45;;;;;;;15.75;100.00;101341.97;5028193;28;20096;-80
2022/09/06 05:44:51;;;;;;;20.63;9.90;;;;;;;15.81;100.00;101344.19;5023198;28;20059;-80
2022/09/06 05:47:16;;;;;;;21.65;10.50;;;;;;;15.87;100.00;101350.91;5025208;28;20112;-80
2022/09/06 05:49:41;;;;;;;22.42;12.02;;;;;;;15.94;100.00;101348.53;5030590;28;20437;-80
2022/09/06 05:52:07;;;;;;;22.52;11.02;;;;;;;16.01;100.00;101349.69;5031216;28;20029;-80
2022/09/06 05:54:32;;;;;;;22.60;11.77;;;;;;;16.07;100.00;101352.69;5027266;28;20026;-80
2022/09/06 05:56:57;;;;;;;24.63;11.32;;;;;;;16.13;100.00;101348.59;5026827;28;20029;-81
2022/09/06 05:59:22;;;;;;;20.55;10.18;;;;;;;16.18;100.00;101351.78;5030009;28;20025;-80
2022/09/06 06:01:50;;;;;;;21.20;10.77;;;;;;;16.22;100.00;101349.63;5021840;28;20416;-79
2022/09/06 06:04:17;;;;;;;21.45;10.65;;;;;;;16.27;100.00;101343.78;5026114;28;20117;-79
2022/09/06 06:06:43;;;;;;;23.65;10.77;;;;;;;16.30;100.00;101344.38;5028812;28;20079;-79
2022/09/06 06:09:08;;;;;;;23.38;10.20;;;;;;;16.34;100.00;101345.81;5028519;28;20026;-80
2022/09/06 06:11:34;;;;;;;20.10;9.60;;;;;;;16.39;100.00;101337.28;5030244;28;20034;-80
2022/09/06 06:14:01;;;;;;;24.13;10.63;;;;;;;16.43;100.00;101341.44;5027493;28;20102;-80
2022/09/06 06:16:27;;;;;;;21.77;10.38;;;;;;;16.49;100.00;101345.44;5027904;28;20043;-80
2022/09/06 06:18:53;;;;;;;19.63;9.63;;;;;;;16.54;100.00;101345.88;5025944;28;20033;-80
2022/09/06 06:21:21;;;;;;;23.05;10.55;;;;;;;16.58;100.00;101342.72;5025531;28;20021;-79
2022/09/06 06:23:50;;;;;;;22.70;10.80;;;;;;;16.63;100.00;101353.16;5026832;28;20029;-79
2022/09/06 06:26:15;;;;;;;21.23;9.67;;;;;;;16.67;100.00;101346.47;5024648;28;20103;-80
2022/09/06 06:28:40;;;;;;;26.67;10.25;;;;;;;16.73;100.00;101339.63;5027943;28;20379;-80
2022/09/06 06:31:08;;;;;;;22.23;9.32;;;;;;;16.77;100.00;101335.63;5029224;28;20029;-80
2022/09/06 06:33:35;;;;;;;22.42;9.88;;;;;;;16.85;100.00;101337.63;5028615;28;20025;-80
2022/09/06 06:36:05;;;;;;;27.08;9.23;;;;;;;16.89;100.00;101337.22;5027064;28;20040;-80
2022/09/06 06:38:36;;;;;;;20.38;9.57;;;;;;;16.94;100.00;101331.38;5025135;28;20457;-80
2022/09/06 06:41:03;;;;;;;20.38;8.90;;;;;;;17.00;100.00;101333.53;5041243;28;20036;-80
2022/09/06 06:43:28;;;;;;;19.95;8.43;;;;;;;17.05;100.00;101333.94;5025372;28;20519;-80
2022/09/06 06:45:54;;;;;;;21.27;9.30;;;;;;;17.12;100.00;101335.09;5025338;28;20025;-83
2022/09/06 06:48:20;;;;;;;20.75;8.75;;;;;;;17.18;100.00;101333.66;5027293;28;20080;-81
2022/09/06 06:50:46;;;;;;;20.90;8.88;;;;;;;17.23;100.00;101331.38;5029873;28;20029;-81
2022/09/06 06:53:11;;;;;;;19.58;8.95;;;;;;;17.31;100.00;101327.94;5027467;28;20032;-81
2022/09/06 06:55:37;;;;;;;20.13;8.35;;;;;;;17.37;100.00;101330.06;5023627;28;20057;-81
2022/09/06 06:58:02;;;;;;;21.73;8.60;;;;;;;17.41;100.00;101323.34;5027153;28;20033;-82
2022/09/06 07:00:28;;;;;;;18.17;7.72;;;;;;;17.48;100.00;101329.03;5039304;28;20029;-79
2022/09/06 07:02:55;;;;;;;18.52;7.28;;;;;;;17.52;99.26;101335.06;5023992;28;20032;-79
2022/09/06 07:05:21;;;;;;;20.73;7.15;;;;;;;17.58;100.00;101324.44;5026653;28;20033;-78
2022/09/06 07:07:46;;;;;;;19.85;7.50;;;;;;;17.63;100.00;101326.75;5027562;28;20045;-79
2022/09/06 07:10:12;;;;;;;17.27;7.25;;;;;;;17.70;100.00;101317.00;5027077;28;20500;-79
2022/09/06 07:12:37;;;;;;;16.25;6.38;;;;;;;17.73;98.46;101316.69;5041491;28;20115;-80
2022/09/06 07:15:03;;;;;;;15.43;6.47;;;;;;;17.79;98.93;101323.41;5025800;28;20108;-79
2022/09/06 07:17:28;;;;;;;17.17;6.30;;;;;;;17.86;98.15;101318.22;5038461;28;20022;-79
2022/09/06 07:19:54;;;;;;;18.85;6.30;;;;;;;17.89;98.65;101324.22;5027356;28;20025;-79
2022/09/06 07:22:19;;;;;;;18.10;5.63;;;;;;;17.93;97.70;101330.25;5026015;28;20029;-79
2022/09/06 07:24:44;;;;;;;14.40;5.38;;;;;;;17.98;97.27;101333.38;5044553;28;20037;-79
2022/09/06 07:27:09;;;;;;;17.75;6.80;;;;;;;18.02;97.45;101329.34;5035463;28;20413;-79
2022/09/06 07:29:35;;;;;;;12.25;4.82;;;;;;;18.07;96.53;101328.88;5023376;28;20037;-79
2022/09/06 07:32:00;;;;;;;20.17;6.88;;;;;;;18.14;97.73;101338.16;5026615;28;20037;-79
2022/09/06 07:34:25;;;;;;;13.98;4.65;;;;;;;18.13;93.81;101323.72;5029358;28;20049;-78
2022/09/06 07:36:52;;;;;;;18.70;6.20;;;;;;;18.21;95.85;101322.94;5020687;28;20025;-74
2022/09/06 07:39:18;;;;;;;13.70;5.50;;;;;;;18.24;95.28;101325.38;5027844;28;20131;-74
2022/09/06 07:41:43;;;;;;;14.25;5.20;;;;;;;18.28;94.91;101332.22;5024969;28;20061;-74
2022/09/06 07:44:08;;;;;;;15.73;5.68;;;;;;;18.34;94.57;101336.22;5026600;28;20508;-74
2022/09/06 07:46:34;;;;;;;9.05;3.42;;;;;;;18.32;89.62;101336.34;5027790;28;20079;-75
2022/09/06 07:48:59;;;;;;;12.60;4.47;;;;;;;18.37;91.32;101341.34;5041160;28;20044;-75
2022/09/06 07:51:24;;;;;;;14.65;5.10;;;;;;;18.44;92.20;101331.56;5027431;28;20033;-75
2022/09/06 07:53:54;;;;;;;14.18;4.72;;;;;;;18.52;93.90;101325.34;5020310;28;20071;-74
2022/09/06 07:56:21;;;;;;;9.52;3.55;;;;;;;18.49;86.35;101329.25;5030973;28;20421;-74
2022/09/06 07:58:47;;;;;;;11.55;3.72;;;;;;;18.50;86.87;101320.06;5024684;28;20124;-74
2022/09/06 08:01:16;;;;;;;11.93;4.57;;;;;;;18.56;87.66;101318.59;5020520;28;20555;-75
2022/09/06 08:03:42;;;;;;;9.90;3.75;;;;;;;18.54;84.05;101317.03;5024987;28;20091;-74
2022/09/06 08:06:07;;;;;;;10.93;4.20;;;;;;;18.58;85.79;101313.88;5026811;28;20037;-74
2022/09/06 08:08:33;;;;;;;11.68;3.97;;;;;;;18.67;85.47;101314.81;5030057;28;20091;-74
2022/09/06 08:10:58;;;;;;;9.55;3.92;;;;;;;18.73;86.47;101316.91;5029002;28;20036;-74
2022/09/06 08:13:23;;;;;;;11.23;4.18;;;;;;;18.83;88.83;101316.84;5030194;28;20417;-74
2022/09/06 08:15:59;;;;;;;9.10;3.67;;;;;;;18.83;87.18;101314.97;5028860;28;20037;-74
2022/09/06 08:18:24;;;;;;;13.05;3.90;;;;;;;18.89;91.12;101313.53;5042563;28;20049;-74
2022/09/06 08:20:49;;;;;;;13.43;4.47;;;;;;;18.95;88.23;101318.34;5029194;28;20036;-74
2022/09/06 08:23:15;;;;;;;12.25;4.38;;;;;;;18.96;91.02;101319.19;5029488;28;20037;-76
2022/09/06 08:25:40;;;;;;;13.88;4.65;;;;;;;18.99;88.48;101329.78;5030067;28;20424;-76
2022/09/06 08:28:05;;;;;;;16.95;4.93;;;;;;;19.02;89.89;101332.22;5045031;28;20033;-77
2022/09/06 08:30:31;;;;;;;11.05;4.05;;;;;;;19.04;89.02;101335.63;5029255;28;20094;-73
2022/09/06 08:32:57;;;;;;;13.00;4.10;;;;;;;19.10;88.72;101331.41;5036547;28;20044;-73
2022/09/06 08:35:22;;;;;;;9.23;3.67;;;;;;;19.15;88.22;101324.50;5030437;28;20029;-73
2022/09/06 08:37:47;;;;;;;10.80;3.95;;;;;;;19.17;85.79;101322.44;5042754;28;20517;-72
2022/09/06 08:40:19;;;;;;;14.70;4.47;;;;;;;19.28;87.61;101324.06;5021313;28;20090;-72
2022/09/06 08:42:44;;;;;;;10.65;3.95;;;;;;;19.31;86.92;101333.81;5026271;28;20025;-72
2022/09/06 08:45:14;;;;;;;10.77;4.22;;;;;;;19.35;87.26;101324.28;5028040;28;20037;-72
2022/09/06 08:47:39;;;;;;;10.75;3.72;;;;;;;19.35;83.90;101324.28;5027338;28;20180;-80
2022/09/06 08:50:06;;;;;;;10.35;4.45;;;;;;;19.43;86.65;101327.09;5027754;28;20129;-80
2022/09/06 08:52:59;;;;;;;14.05;4.40;;;;;;;19.50;86.37;101314.53;5039238;28;20028;-80
2022/09/06 08:55:46;;;;;;;14.65;5.38;;;;;;;19.58;86.47;101319.19;5036007;28;20025;-80
2022/09/06 08:58:23;;;;;;;9.60;3.80;;;;;;;19.60;85.32;101325.31;5052654;28;20043;-80
2022/09/06 09:01:12;;;;;;;10.55;4.07;;;;;;;19.73;85.46;101314.00;5030543;28;20037;-80
2022/09/06 09:03:41;;;;;;;11.30;4.13;;;;;;;19.82;84.91;101329.41;5023460;28;20041;-80
2022/09/06 09:06:08;;;;;;;10.65;3.90;;;;;;;19.83;83.34;101330.28;5036491;28;20032;-80
2022/09/06 09:08:37;;;;;;;14.35;4.57;;;;;;;19.90;84.24;101326.75;5035789;28;20110;-81
2022/09/06 09:11:06;;;;;;;16.33;5.15;;;;;;;19.94;82.63;101320.94;5026421;28;20033;-80
2022/09/06 09:13:37;;;;;;;12.70;4.05;;;;;;;19.99;82.12;101319.44;5024979;28;20022;-81
2022/09/06 09:16:03;;;;;;;11.73;3.72;;;;;;;20.03;81.72;101311.78;5027043;28;20123;-80
2022/09/06 09:18:32;;;;;;;8.70;3.95;;;;;;;20.10;83.51;101301.91;5027903;28;20117;-80
2022/09/06 09:20:58;;;;;;;15.05;4.47;;;;;;;20.14;82.10;101306.03;5030247;28;20037;-80
2022/09/06 09:23:24;;;;;;;10.45;3.72;;;;;;;20.19;82.45;101309.16;5025061;28;20158;-80
2022/09/06 09:25:51;;;;;;;14.60;4.53;;;;;;;20.24;82.51;101314.09;5029938;28;20037;-81
2022/09/06 09:28:21;;;;;;;9.52;3.70;;;;;;;20.29;82.09;101308.16;5034437;28;20112;-81
2022/09/06 09:30:54;;;;;;;12.40;3.95;;;;;;;20.33;81.93;101312.25;5031375;28;20606;-80
2022/09/06 09:33:20;;;;;;;8.38;4.13;;;;;;;20.39;81.77;101311.59;5024467;28;20404;-80
2022/09/06 09:35:47;;;;;;;12.60;3.95;;;;;;;20.44;81.53;101320.16;5025565;28;20028;-80
2022/09/06 09:38:19;;;;;;;12.23;4.50;;;;;;;20.50;81.10;101324.06;5036552;28;20400;-80
2022/09/06 09:40:57;;;;;;;11.43;4.10;;;;;;;20.54;80.86;101320.88;5038404;28;20021;-80
2022/09/06 09:43:53;;;;;;;14.15;4.82;;;;;;;20.58;81.37;101307.72;5034609;28;20034;-80
2022/09/06 09:46:21;;;;;;;14.35;4.05;;;;;;;20.67;81.96;101314.09;5030740;28;20160;-80
2022/09/06 09:49:10;;;;;;;13.82;5.05;;;;;;;20.72;80.51;101315.28;5035619;28;20080;-81
2022/09/06 09:51:47;;;;;;;13.23;4.55;;;;;;;20.83;81.31;101311.38;5036225;28;20025;-80
2022/09/06 09:54:29;;;;;;;14.30;4.70;;;;;;;20.90;80.26;101309.69;5034819;28;20029;-80
2022/09/06 09:56:56;;;;;;;14.57;4.47;;;;;;;20.89;79.84;101310.69;5035637;28;20032;-80
2022/09/06 09:59:46;;;;;;;13.48;5.05;;;;;;;20.91;81.47;101305.94;5028797;28;20026;-80
2022/09/06 10:02:24;;;;;;;13.38;4.93;;;;;;;20.93;78.48;101306.59;5021030;28;20041;-80
2022/09/06 10:04:57;;;;;;;11.75;4.35;;;;;;;20.96;80.05;101308.16;5028448;28;20037;-80
2022/09/06 10:07:26;;;;;;;13.38;4.88;;;;;;;21.02;77.37;101325.75;5031842;28;20049;-80
2022/09/06 10:10:04;;;;;;;13.57;5.15;;;;;;;21.09;79.18;101329.50;5025661;28;20475;-80
2022/09/06 10:12:37;;;;;;;15.20;4.93;;;;;;;21.16;79.16;101336.00;5030461;28;20056;-80
2022/09/06 10:15:04;;;;;;;11.82;4.03;;;;;;;21.15;78.09;101326.09;5027490;28;20021;-80
2022/09/06 10:17:34;;;;;;;13.77;5.05;;;;;;;21.20;78.07;101329.19;5035861;28;20036;-80
2022/09/06 10:20:10;;;;;;;12.90;4.32;;;;;;;21.21;79.48;101322.66;5028597;28;20037;-80
2022/09/06 10:23:02;;;;;;;11.98;4.70;;;;;;;21.26;79.13;101330.34;5034434;28;20052;-81
2022/09/06 10:25:44;;;;;;;15.65;5.57;;;;;;;21.33;77.67;101336.00;5034099;28;20363;-81
2022/09/06 10:28:21;;;;;;;12.88;4.55;;;;;;;21.47;77.90;101316.16;5026249;28;20041;-80
2022/09/06 10:31:18;;;;;;;14.27;5.18;;;;;;;21.52;78.03;101337.56;5026653;28;20083;-81
2022/09/06 10:33:52;;;;;;;14.82;5.68;;;;;;;21.55;76.17;101321.63;5046074;28;20027;-80
2022/09/06 10:36:23;;;;;;;13.35;4.68;;;;;;;21.60;76.00;101323.88;5041903;28;20523;-80
2022/09/06 10:38:53;;;;;;;14.25;5.68;;;;;;;21.66;76.81;101325.06;5032721;28;20413;-80
2022/09/06 10:41:32;;;;;;;16.45;6.13;;;;;;;21.71;74.24;101314.44;5030006;28;20033;-80
2022/09/06 10:44:03;;;;;;;21.35;6.57;;;;;;;21.73;75.83;101317.84;5048915;28;20033;-80
2022/09/06 10:46:33;;;;;;;15.98;5.65;;;;;;;21.74;76.21;101308.63;5047336;28;20473;-81
2022/09/06 10:48:58;;;;;;;17.00;5.85;;;;;;;21.77;75.79;101319.22;5031905;28;20025;-80
2022/09/06 10:51:44;;;;;;;13.50;5.60;;;;;;;21.78;74.89;101313.56;5030023;28;20454;-81
2022/09/06 10:54:12;;;;;;;19.95;6.22;;;;;;;21.86;74.18;101309.97;5034717;28;20139;-80
2022/09/06 10:57:01;;;;;;;17.85;5.90;;;;;;;21.84;75.40;101298.31;5026199;28;20524;-81
2022/09/06 10:59:29;;;;;;;16.85;5.93;;;;;;;21.87;75.23;101308.06;5025105;28;20029;-81
2022/09/06 11:02:17;;;;;;;17.75;6.22;;;;;;;21.90;75.80;101316.75;5023499;28;20412;-80
2022/09/06 11:04:47;;;;;;;12.60;4.78;;;;;;;21.87;73.68;101316.28;5029328;28;20056;-80
2022/09/06 11:07:25;;;;;;;19.08;5.75;;;;;;;21.90;75.00;101311.28;5037272;28;20080;-76
2022/09/06 11:10:23;;;;;;;17.50;5.60;;;;;;;21.97;74.01;101319.66;5024458;28;20104;-80
2022/09/06 11:12:56;;;;;;;18.15;6.03;;;;;;;22.03;74.20;101327.16;5023488;28;20338;-81
2022/09/06 11:15:23;;;;;;;16.58;5.50;;;;;;;22.13;72.57;101326.97;5027159;28;20024;-80
2022/09/06 11:18:07;;;;;;;18.55;6.25;;;;;;;22.15;73.99;101330.38;5039295;28;20026;-80
2022/09/06 11:20:43;;;;;;;10.80;4.40;;;;;;;22.13;73.71;101332.44;5032209;28;20349;-80
2022/09/06 11:23:27;;;;;;;12.13;5.05;;;;;;;22.18;74.13;101338.22;5051324;28;20559;-80